sensor_id;sensor_type;location;lat;lon;timestamp;P1;durP1;ratioP1;P2;durP2;ratioP2
50128;SDS011;36026;45.478;9.224;2023-03-31T00:01:26;6.57;;;1.80;;
50128;SDS011;36026;45.478;9.224;2023-03-31T00:04:31;9.52;;;1.95;;
50128;SDS011;36026;45.478;9.224;2023-03-31T00:07:53;3.83;;;1.83;;
50128;SDS011;36026;45.478;9.224;2023-03-31T00:11:00;9.82;;;1.80;;
50128;SDS011;36026;45.478;9.224;2023-03-31T00:14:03;7.20;;;2.03;;
50128;SDS011;36026;45.478;9.224;2023-03-31T00:17:09;15.50;;;4.93;;
50128;SDS011;36026;45.478;9.224;2023-03-31T00:20:12;8.68;;;3.92;;
50128;SDS011;36026;45.478;9.224;2023-03-31T00:23:15;7.07;;;2.08;;
50128;SDS011;36026;45.478;9.224;2023-03-31T00:26:16;4.93;;;2.20;;
50128;SDS011;36026;45.478;9.224;2023-03-31T00:29:18;9.10;;;2.72;;
50128;SDS011;36026;45.478;9.224;2023-03-31T00:32:20;6.43;;;2.30;;
50128;SDS011;36026;45.478;9.224;2023-03-31T00:35:24;8.07;;;2.33;;
50128;SDS011;36026;45.478;9.224;2023-03-31T00:38:45;8.18;;;2.42;;
50128;SDS011;36026;45.478;9.224;2023-03-31T00:41:47;5.45;;;2.33;;
50128;SDS011;36026;45.478;9.224;2023-03-31T00:48:23;11.73;;;2.63;;
50128;SDS011;36026;45.478;9.224;2023-03-31T00:54:30;4.15;;;1.92;;
50128;SDS011;36026;45.478;9.224;2023-03-31T00:57:36;4.40;;;1.67;;
50128;SDS011;36026;45.478;9.224;2023-03-31T01:00:39;8.10;;;1.60;;
50128;SDS011;36026;45.478;9.224;2023-03-31T01:03:47;10.65;;;2.35;;
50128;SDS011;36026;45.478;9.224;2023-03-31T01:07:08;9.05;;;2.42;;
50128;SDS011;36026;45.478;9.224;2023-03-31T01:16:57;7.30;;;1.92;;
50128;SDS011;36026;45.478;9.224;2023-03-31T01:20:04;6.63;;;1.73;;
50128;SDS011;36026;45.478;9.224;2023-03-31T01:26:55;8.27;;;1.75;;
50128;SDS011;36026;45.478;9.224;2023-03-31T01:41:11;4.65;;;1.42;;
50128;SDS011;36026;45.478;9.224;2023-03-31T01:44:21;5.30;;;1.55;;
50128;SDS011;36026;45.478;9.224;2023-03-31T01:48:00;2.92;;;1.35;;
50128;SDS011;36026;45.478;9.224;2023-03-31T01:51:06;6.63;;;1.67;;
50128;SDS011;36026;45.478;9.224;2023-03-31T01:54:48;4.93;;;1.40;;
50128;SDS011;36026;45.478;9.224;2023-03-31T01:57:56;7.80;;;1.90;;
50128;SDS011;36026;45.478;9.224;2023-03-31T02:01:01;6.05;;;1.77;;
50128;SDS011;36026;45.478;9.224;2023-03-31T02:04:25;6.22;;;2.08;;
50128;SDS011;36026;45.478;9.224;2023-03-31T02:07:33;7.50;;;1.67;;
50128;SDS011;36026;45.478;9.224;2023-03-31T02:10:52;7.45;;;1.75;;
50128;SDS011;36026;45.478;9.224;2023-03-31T02:17:31;5.53;;;1.50;;
50128;SDS011;36026;45.478;9.224;2023-03-31T02:20:38;8.13;;;1.67;;
50128;SDS011;36026;45.478;9.224;2023-03-31T02:23:52;5.97;;;1.80;;
50128;SDS011;36026;45.478;9.224;2023-03-31T02:26:55;6.38;;;1.27;;
50128;SDS011;36026;45.478;9.224;2023-03-31T02:30:03;6.35;;;2.35;;
50128;SDS011;36026;45.478;9.224;2023-03-31T02:33:06;5.75;;;1.80;;
50128;SDS011;36026;45.478;9.224;2023-03-31T02:36:08;6.55;;;2.00;;
50128;SDS011;36026;45.478;9.224;2023-03-31T02:39:13;3.90;;;1.23;;
50128;SDS011;36026;45.478;9.224;2023-03-31T02:42:28;4.82;;;1.73;;
50128;SDS011;36026;45.478;9.224;2023-03-31T02:49:15;8.73;;;1.63;;
50128;SDS011;36026;45.478;9.224;2023-03-31T02:52:44;4.78;;;1.48;;
50128;SDS011;36026;45.478;9.224;2023-03-31T02:55:54;5.05;;;1.73;;
50128;SDS011;36026;45.478;9.224;2023-03-31T02:59:08;7.97;;;1.88;;
50128;SDS011;36026;45.478;9.224;2023-03-31T03:02:20;11.15;;;2.28;;
50128;SDS011;36026;45.478;9.224;2023-03-31T03:08:38;10.45;;;2.10;;
50128;SDS011;36026;45.478;9.224;2023-03-31T03:12:08;8.15;;;2.30;;
50128;SDS011;36026;45.478;9.224;2023-03-31T03:15:39;5.70;;;1.90;;
50128;SDS011;36026;45.478;9.224;2023-03-31T03:18:45;8.30;;;1.95;;
50128;SDS011;36026;45.478;9.224;2023-03-31T03:21:59;4.82;;;1.63;;
50128;SDS011;36026;45.478;9.224;2023-03-31T03:25:00;5.88;;;1.85;;
50128;SDS011;36026;45.478;9.224;2023-03-31T03:28:02;6.43;;;1.90;;
50128;SDS011;36026;45.478;9.224;2023-03-31T03:31:04;5.18;;;1.70;;
50128;SDS011;36026;45.478;9.224;2023-03-31T03:34:09;5.70;;;2.10;;
50128;SDS011;36026;45.478;9.224;2023-03-31T03:37:11;8.50;;;1.85;;
50128;SDS011;36026;45.478;9.224;2023-03-31T03:40:13;8.32;;;2.53;;
50128;SDS011;36026;45.478;9.224;2023-03-31T03:43:15;6.88;;;2.15;;
50128;SDS011;36026;45.478;9.224;2023-03-31T03:46:17;4.47;;;2.13;;
50128;SDS011;36026;45.478;9.224;2023-03-31T03:49:21;6.30;;;1.80;;
50128;SDS011;36026;45.478;9.224;2023-03-31T03:52:22;7.05;;;1.70;;
50128;SDS011;36026;45.478;9.224;2023-03-31T03:55:24;5.55;;;1.88;;
50128;SDS011;36026;45.478;9.224;2023-03-31T03:58:26;11.07;;;1.80;;
50128;SDS011;36026;45.478;9.224;2023-03-31T04:01:28;6.57;;;1.50;;
50128;SDS011;36026;45.478;9.224;2023-03-31T04:04:32;7.65;;;2.05;;
50128;SDS011;36026;45.478;9.224;2023-03-31T04:07:33;11.32;;;1.67;;
50128;SDS011;36026;45.478;9.224;2023-03-31T04:10:35;4.50;;;1.52;;
50128;SDS011;36026;45.478;9.224;2023-03-31T04:13:37;6.03;;;1.55;;
50128;SDS011;36026;45.478;9.224;2023-03-31T04:16:39;7.20;;;1.83;;
50128;SDS011;36026;45.478;9.224;2023-03-31T04:19:43;7.05;;;1.70;;
50128;SDS011;36026;45.478;9.224;2023-03-31T04:22:49;4.88;;;1.70;;
50128;SDS011;36026;45.478;9.224;2023-03-31T04:25:51;6.70;;;2.03;;
50128;SDS011;36026;45.478;9.224;2023-03-31T04:28:53;10.02;;;2.05;;
50128;SDS011;36026;45.478;9.224;2023-03-31T04:31:57;8.27;;;1.90;;
50128;SDS011;36026;45.478;9.224;2023-03-31T04:35:00;8.32;;;1.90;;
50128;SDS011;36026;45.478;9.224;2023-03-31T04:38:02;6.53;;;1.90;;
50128;SDS011;36026;45.478;9.224;2023-03-31T04:41:04;13.30;;;1.88;;
50128;SDS011;36026;45.478;9.224;2023-03-31T04:44:06;6.88;;;2.03;;
50128;SDS011;36026;45.478;9.224;2023-03-31T04:47:08;5.05;;;1.80;;
50128;SDS011;36026;45.478;9.224;2023-03-31T04:50:12;7.57;;;1.92;;
50128;SDS011;36026;45.478;9.224;2023-03-31T04:53:14;8.05;;;1.60;;
50128;SDS011;36026;45.478;9.224;2023-03-31T04:56:18;7.72;;;1.95;;
50128;SDS011;36026;45.478;9.224;2023-03-31T04:59:19;8.65;;;2.22;;
50128;SDS011;36026;45.478;9.224;2023-03-31T05:02:21;7.32;;;1.80;;
50128;SDS011;36026;45.478;9.224;2023-03-31T05:05:25;6.20;;;1.77;;
50128;SDS011;36026;45.478;9.224;2023-03-31T05:08:27;4.90;;;2.33;;
50128;SDS011;36026;45.478;9.224;2023-03-31T05:11:28;8.85;;;1.90;;
50128;SDS011;36026;45.478;9.224;2023-03-31T05:14:30;4.97;;;1.75;;
50128;SDS011;36026;45.478;9.224;2023-03-31T05:17:32;10.90;;;1.90;;
50128;SDS011;36026;45.478;9.224;2023-03-31T05:20:37;6.93;;;1.83;;
50128;SDS011;36026;45.478;9.224;2023-03-31T05:23:39;7.72;;;1.73;;
50128;SDS011;36026;45.478;9.224;2023-03-31T05:26:41;8.80;;;1.90;;
50128;SDS011;36026;45.478;9.224;2023-03-31T05:29:47;8.23;;;2.47;;
50128;SDS011;36026;45.478;9.224;2023-03-31T05:32:48;8.90;;;1.85;;
50128;SDS011;36026;45.478;9.224;2023-03-31T05:35:57;8.98;;;2.00;;
50128;SDS011;36026;45.478;9.224;2023-03-31T05:39:00;7.90;;;2.63;;
50128;SDS011;36026;45.478;9.224;2023-03-31T05:42:02;8.40;;;2.03;;
50128;SDS011;36026;45.478;9.224;2023-03-31T05:45:05;10.15;;;1.92;;
50128;SDS011;36026;45.478;9.224;2023-03-31T05:48:08;9.37;;;2.63;;
50128;SDS011;36026;45.478;9.224;2023-03-31T05:51:11;8.15;;;2.15;;
50128;SDS011;36026;45.478;9.224;2023-03-31T05:54:13;7.93;;;2.00;;
50128;SDS011;36026;45.478;9.224;2023-03-31T05:57:15;9.80;;;1.90;;
50128;SDS011;36026;45.478;9.224;2023-03-31T06:00:17;8.43;;;2.70;;
50128;SDS011;36026;45.478;9.224;2023-03-31T06:03:19;4.30;;;1.55;;
50128;SDS011;36026;45.478;9.224;2023-03-31T06:06:22;9.32;;;2.22;;
50128;SDS011;36026;45.478;9.224;2023-03-31T06:09:25;7.32;;;2.15;;
50128;SDS011;36026;45.478;9.224;2023-03-31T06:12:27;7.68;;;2.25;;
50128;SDS011;36026;45.478;9.224;2023-03-31T06:15:29;7.68;;;2.17;;
50128;SDS011;36026;45.478;9.224;2023-03-31T06:18:32;10.68;;;2.33;;
50128;SDS011;36026;45.478;9.224;2023-03-31T06:21:35;8.70;;;2.55;;
50128;SDS011;36026;45.478;9.224;2023-03-31T06:24:37;10.03;;;2.80;;
50128;SDS011;36026;45.478;9.224;2023-03-31T06:27:39;7.85;;;2.88;;
50128;SDS011;36026;45.478;9.224;2023-03-31T06:30:41;9.73;;;2.75;;
50128;SDS011;36026;45.478;9.224;2023-03-31T06:33:43;8.18;;;2.83;;
50128;SDS011;36026;45.478;9.224;2023-03-31T06:36:46;10.95;;;3.03;;
50128;SDS011;36026;45.478;9.224;2023-03-31T06:39:48;11.23;;;4.20;;
50128;SDS011;36026;45.478;9.224;2023-03-31T06:42:50;10.82;;;2.90;;
50128;SDS011;36026;45.478;9.224;2023-03-31T06:45:54;13.70;;;3.00;;
50128;SDS011;36026;45.478;9.224;2023-03-31T06:48:56;10.13;;;2.88;;
50128;SDS011;36026;45.478;9.224;2023-03-31T06:52:00;12.13;;;3.30;;
50128;SDS011;36026;45.478;9.224;2023-03-31T06:55:03;16.70;;;3.75;;
50128;SDS011;36026;45.478;9.224;2023-03-31T06:58:05;12.02;;;3.38;;
50128;SDS011;36026;45.478;9.224;2023-03-31T07:01:07;50.15;;;4.80;;
50128;SDS011;36026;45.478;9.224;2023-03-31T07:13:16;75.68;;;7.35;;
50128;SDS011;36026;45.478;9.224;2023-03-31T07:16:18;13.68;;;3.95;;
50128;SDS011;36026;45.478;9.224;2023-03-31T07:19:20;363.05;;;28.00;;
50128;SDS011;36026;45.478;9.224;2023-03-31T07:22:23;25.90;;;4.95;;
50128;SDS011;36026;45.478;9.224;2023-03-31T07:25:25;9.98;;;4.60;;
50128;SDS011;36026;45.478;9.224;2023-03-31T07:28:30;14.80;;;4.40;;
50128;SDS011;36026;45.478;9.224;2023-03-31T07:31:32;11.57;;;4.25;;
50128;SDS011;36026;45.478;9.224;2023-03-31T07:34:33;11.95;;;4.90;;
50128;SDS011;36026;45.478;9.224;2023-03-31T07:37:37;20.65;;;4.85;;
50128;SDS011;36026;45.478;9.224;2023-03-31T07:40:40;13.73;;;4.35;;
50128;SDS011;36026;45.478;9.224;2023-03-31T07:43:44;14.50;;;4.80;;
50128;SDS011;36026;45.478;9.224;2023-03-31T07:46:46;10.52;;;4.13;;
50128;SDS011;36026;45.478;9.224;2023-03-31T07:49:47;14.05;;;4.90;;
50128;SDS011;36026;45.478;9.224;2023-03-31T07:52:51;11.93;;;4.53;;
50128;SDS011;36026;45.478;9.224;2023-03-31T07:55:52;14.03;;;3.90;;
50128;SDS011;36026;45.478;9.224;2023-03-31T07:58:54;7.35;;;2.78;;
50128;SDS011;36026;45.478;9.224;2023-03-31T08:01:56;13.00;;;3.00;;
50128;SDS011;36026;45.478;9.224;2023-03-31T08:04:58;8.35;;;3.00;;
50128;SDS011;36026;45.478;9.224;2023-03-31T08:08:01;11.82;;;3.13;;
50128;SDS011;36026;45.478;9.224;2023-03-31T08:11:03;7.63;;;2.70;;
50128;SDS011;36026;45.478;9.224;2023-03-31T08:14:04;6.97;;;2.80;;
50128;SDS011;36026;45.478;9.224;2023-03-31T08:17:06;7.80;;;3.40;;
50128;SDS011;36026;45.478;9.224;2023-03-31T08:20:08;8.65;;;3.38;;
50128;SDS011;36026;45.478;9.224;2023-03-31T08:23:12;12.82;;;3.45;;
50128;SDS011;36026;45.478;9.224;2023-03-31T08:26:15;9.32;;;3.20;;
50128;SDS011;36026;45.478;9.224;2023-03-31T08:29:17;9.80;;;3.30;;
50128;SDS011;36026;45.478;9.224;2023-03-31T08:32:20;6.72;;;3.25;;
50128;SDS011;36026;45.478;9.224;2023-03-31T08:35:22;10.23;;;3.53;;
50128;SDS011;36026;45.478;9.224;2023-03-31T08:38:25;10.25;;;3.30;;
50128;SDS011;36026;45.478;9.224;2023-03-31T08:41:33;8.47;;;3.20;;
50128;SDS011;36026;45.478;9.224;2023-03-31T08:44:40;11.38;;;3.92;;
50128;SDS011;36026;45.478;9.224;2023-03-31T08:47:45;9.50;;;3.00;;
50128;SDS011;36026;45.478;9.224;2023-03-31T08:50:49;6.07;;;2.00;;
50128;SDS011;36026;45.478;9.224;2023-03-31T08:53:56;7.13;;;2.90;;
50128;SDS011;36026;45.478;9.224;2023-03-31T08:57:02;7.65;;;3.20;;
50128;SDS011;36026;45.478;9.224;2023-03-31T09:03:13;6.95;;;1.95;;
50128;SDS011;36026;45.478;9.224;2023-03-31T09:06:20;6.97;;;2.38;;
50128;SDS011;36026;45.478;9.224;2023-03-31T09:09:27;8.80;;;2.30;;
50128;SDS011;36026;45.478;9.224;2023-03-31T09:12:37;8.50;;;2.15;;
50128;SDS011;36026;45.478;9.224;2023-03-31T09:15:44;9.25;;;1.95;;
50128;SDS011;36026;45.478;9.224;2023-03-31T09:18:49;9.35;;;2.55;;
50128;SDS011;36026;45.478;9.224;2023-03-31T09:21:55;5.80;;;1.95;;
50128;SDS011;36026;45.478;9.224;2023-03-31T09:25:00;9.70;;;2.03;;
50128;SDS011;36026;45.478;9.224;2023-03-31T09:28:05;6.30;;;2.25;;
50128;SDS011;36026;45.478;9.224;2023-03-31T09:31:16;6.55;;;2.30;;
50128;SDS011;36026;45.478;9.224;2023-03-31T09:34:20;7.85;;;2.90;;
50128;SDS011;36026;45.478;9.224;2023-03-31T09:37:25;6.80;;;2.85;;
50128;SDS011;36026;45.478;9.224;2023-03-31T09:40:29;13.15;;;3.33;;
50128;SDS011;36026;45.478;9.224;2023-03-31T09:43:31;11.03;;;2.70;;
50128;SDS011;36026;45.478;9.224;2023-03-31T09:46:35;11.25;;;2.95;;
50128;SDS011;36026;45.478;9.224;2023-03-31T09:49:37;9.05;;;2.53;;
50128;SDS011;36026;45.478;9.224;2023-03-31T09:52:39;5.90;;;2.22;;
50128;SDS011;36026;45.478;9.224;2023-03-31T09:55:45;7.57;;;2.33;;
50128;SDS011;36026;45.478;9.224;2023-03-31T09:58:51;7.13;;;2.50;;
50128;SDS011;36026;45.478;9.224;2023-03-31T10:01:55;9.18;;;2.65;;
50128;SDS011;36026;45.478;9.224;2023-03-31T10:04:58;10.10;;;3.03;;
50128;SDS011;36026;45.478;9.224;2023-03-31T10:08:20;10.15;;;3.15;;
50128;SDS011;36026;45.478;9.224;2023-03-31T10:11:26;11.13;;;3.35;;
50128;SDS011;36026;45.478;9.224;2023-03-31T10:14:32;6.70;;;3.47;;
50128;SDS011;36026;45.478;9.224;2023-03-31T10:17:40;8.02;;;3.28;;
50128;SDS011;36026;45.478;9.224;2023-03-31T10:20:43;9.57;;;4.00;;
50128;SDS011;36026;45.478;9.224;2023-03-31T10:23:51;10.70;;;3.72;;
50128;SDS011;36026;45.478;9.224;2023-03-31T10:26:55;11.07;;;3.58;;
50128;SDS011;36026;45.478;9.224;2023-03-31T10:29:58;7.45;;;3.60;;
50128;SDS011;36026;45.478;9.224;2023-03-31T10:33:00;9.68;;;3.25;;
50128;SDS011;36026;45.478;9.224;2023-03-31T10:36:06;11.57;;;3.30;;
50128;SDS011;36026;45.478;9.224;2023-03-31T10:39:10;11.43;;;3.78;;
50128;SDS011;36026;45.478;9.224;2023-03-31T10:42:21;8.48;;;3.55;;
50128;SDS011;36026;45.478;9.224;2023-03-31T10:45:23;8.30;;;3.55;;
50128;SDS011;36026;45.478;9.224;2023-03-31T10:48:27;11.77;;;3.40;;
50128;SDS011;36026;45.478;9.224;2023-03-31T10:51:30;10.00;;;4.00;;
50128;SDS011;36026;45.478;9.224;2023-03-31T10:54:31;7.38;;;3.53;;
50128;SDS011;36026;45.478;9.224;2023-03-31T10:57:36;12.23;;;3.85;;
50128;SDS011;36026;45.478;9.224;2023-03-31T11:00:44;10.25;;;3.30;;
50128;SDS011;36026;45.478;9.224;2023-03-31T11:03:57;11.53;;;3.60;;
50128;SDS011;36026;45.478;9.224;2023-03-31T11:07:05;9.40;;;4.70;;
50128;SDS011;36026;45.478;9.224;2023-03-31T11:10:15;8.95;;;3.78;;
50128;SDS011;36026;45.478;9.224;2023-03-31T11:13:24;9.65;;;3.70;;
50128;SDS011;36026;45.478;9.224;2023-03-31T11:16:28;11.18;;;3.58;;
50128;SDS011;36026;45.478;9.224;2023-03-31T11:19:35;12.95;;;3.72;;
50128;SDS011;36026;45.478;9.224;2023-03-31T11:22:42;10.10;;;3.25;;
50128;SDS011;36026;45.478;9.224;2023-03-31T11:25:48;6.47;;;3.78;;
50128;SDS011;36026;45.478;9.224;2023-03-31T11:28:59;9.32;;;3.47;;
50128;SDS011;36026;45.478;9.224;2023-03-31T11:32:15;6.88;;;3.05;;
50128;SDS011;36026;45.478;9.224;2023-03-31T11:35:34;12.23;;;4.05;;
50128;SDS011;36026;45.478;9.224;2023-03-31T11:42:01;12.00;;;4.18;;
50128;SDS011;36026;45.478;9.224;2023-03-31T11:45:11;8.50;;;3.97;;
50128;SDS011;36026;45.478;9.224;2023-03-31T11:48:17;10.40;;;3.55;;
50128;SDS011;36026;45.478;9.224;2023-03-31T11:51:25;9.80;;;3.40;;
50128;SDS011;36026;45.478;9.224;2023-03-31T11:54:30;12.95;;;3.63;;
50128;SDS011;36026;45.478;9.224;2023-03-31T11:57:35;8.90;;;3.65;;
50128;SDS011;36026;45.478;9.224;2023-03-31T12:00:42;8.25;;;3.38;;
50128;SDS011;36026;45.478;9.224;2023-03-31T12:03:50;13.52;;;3.28;;
50128;SDS011;36026;45.478;9.224;2023-03-31T12:06:57;9.65;;;4.35;;
50128;SDS011;36026;45.478;9.224;2023-03-31T12:10:04;8.70;;;3.65;;
50128;SDS011;36026;45.478;9.224;2023-03-31T12:13:25;9.82;;;3.45;;
50128;SDS011;36026;45.478;9.224;2023-03-31T12:16:36;9.85;;;3.80;;
50128;SDS011;36026;45.478;9.224;2023-03-31T12:19:42;10.15;;;3.92;;
50128;SDS011;36026;45.478;9.224;2023-03-31T12:22:46;10.07;;;4.05;;
50128;SDS011;36026;45.478;9.224;2023-03-31T12:25:50;8.43;;;4.22;;
50128;SDS011;36026;45.478;9.224;2023-03-31T12:28:59;8.88;;;3.95;;
50128;SDS011;36026;45.478;9.224;2023-03-31T12:32:06;8.13;;;3.70;;
50128;SDS011;36026;45.478;9.224;2023-03-31T12:35:12;9.02;;;3.60;;
50128;SDS011;36026;45.478;9.224;2023-03-31T12:38:19;9.23;;;3.75;;
50128;SDS011;36026;45.478;9.224;2023-03-31T12:41:27;15.00;;;3.40;;
50128;SDS011;36026;45.478;9.224;2023-03-31T12:44:35;11.18;;;4.05;;
50128;SDS011;36026;45.478;9.224;2023-03-31T12:47:55;8.75;;;3.83;;
50128;SDS011;36026;45.478;9.224;2023-03-31T12:51:11;8.77;;;3.22;;
50128;SDS011;36026;45.478;9.224;2023-03-31T12:54:25;11.73;;;3.85;;
50128;SDS011;36026;45.478;9.224;2023-03-31T12:57:35;14.35;;;4.35;;
50128;SDS011;36026;45.478;9.224;2023-03-31T13:00:36;12.38;;;3.70;;
50128;SDS011;36026;45.478;9.224;2023-03-31T13:04:08;10.68;;;3.78;;
50128;SDS011;36026;45.478;9.224;2023-03-31T13:07:34;9.73;;;3.75;;
50128;SDS011;36026;45.478;9.224;2023-03-31T13:10:50;14.98;;;3.95;;
50128;SDS011;36026;45.478;9.224;2023-03-31T13:13:57;7.70;;;4.15;;
50128;SDS011;36026;45.478;9.224;2023-03-31T13:17:10;12.32;;;4.28;;
50128;SDS011;36026;45.478;9.224;2023-03-31T13:20:15;6.68;;;2.97;;
50128;SDS011;36026;45.478;9.224;2023-03-31T13:23:25;8.77;;;3.33;;
50128;SDS011;36026;45.478;9.224;2023-03-31T13:26:40;11.95;;;3.50;;
50128;SDS011;36026;45.478;9.224;2023-03-31T13:29:46;8.77;;;3.08;;
50128;SDS011;36026;45.478;9.224;2023-03-31T13:33:00;7.30;;;3.25;;
50128;SDS011;36026;45.478;9.224;2023-03-31T13:36:18;13.52;;;3.72;;
50128;SDS011;36026;45.478;9.224;2023-03-31T13:39:34;17.00;;;3.85;;
50128;SDS011;36026;45.478;9.224;2023-03-31T13:42:52;9.57;;;3.05;;
50128;SDS011;36026;45.478;9.224;2023-03-31T13:46:15;11.35;;;3.55;;
50128;SDS011;36026;45.478;9.224;2023-03-31T13:49:34;9.45;;;3.47;;
50128;SDS011;36026;45.478;9.224;2023-03-31T13:52:50;9.98;;;3.50;;
50128;SDS011;36026;45.478;9.224;2023-03-31T13:56:08;10.82;;;3.75;;
50128;SDS011;36026;45.478;9.224;2023-03-31T14:02:49;13.13;;;3.85;;
50128;SDS011;36026;45.478;9.224;2023-03-31T14:06:09;10.25;;;3.83;;
50128;SDS011;36026;45.478;9.224;2023-03-31T14:09:18;9.43;;;3.60;;
50128;SDS011;36026;45.478;9.224;2023-03-31T14:12:29;11.95;;;3.28;;
50128;SDS011;36026;45.478;9.224;2023-03-31T14:15:31;9.70;;;3.85;;
50128;SDS011;36026;45.478;9.224;2023-03-31T14:18:34;9.07;;;3.50;;
50128;SDS011;36026;45.478;9.224;2023-03-31T14:21:39;11.95;;;4.05;;
50128;SDS011;36026;45.478;9.224;2023-03-31T14:24:46;7.35;;;3.38;;
50128;SDS011;36026;45.478;9.224;2023-03-31T14:27:54;10.68;;;3.45;;
50128;SDS011;36026;45.478;9.224;2023-03-31T14:31:08;7.65;;;3.33;;
50128;SDS011;36026;45.478;9.224;2023-03-31T14:37:45;20.52;;;4.03;;
50128;SDS011;36026;45.478;9.224;2023-03-31T14:40:50;10.13;;;3.80;;
50128;SDS011;36026;45.478;9.224;2023-03-31T14:43:56;8.77;;;3.53;;
50128;SDS011;36026;45.478;9.224;2023-03-31T14:46:58;10.30;;;3.70;;
50128;SDS011;36026;45.478;9.224;2023-03-31T14:50:01;9.90;;;3.70;;
50128;SDS011;36026;45.478;9.224;2023-03-31T14:53:12;8.38;;;3.33;;
50128;SDS011;36026;45.478;9.224;2023-03-31T14:56:18;16.02;;;4.40;;
50128;SDS011;36026;45.478;9.224;2023-03-31T14:59:23;8.73;;;3.45;;
50128;SDS011;36026;45.478;9.224;2023-03-31T15:02:29;13.13;;;4.22;;
50128;SDS011;36026;45.478;9.224;2023-03-31T15:05:33;12.02;;;4.00;;
50128;SDS011;36026;45.478;9.224;2023-03-31T15:08:35;12.25;;;3.80;;
50128;SDS011;36026;45.478;9.224;2023-03-31T15:11:39;13.35;;;4.38;;
50128;SDS011;36026;45.478;9.224;2023-03-31T15:14:41;15.10;;;3.93;;
50128;SDS011;36026;45.478;9.224;2023-03-31T15:17:46;7.32;;;3.58;;
50128;SDS011;36026;45.478;9.224;2023-03-31T15:20:48;12.60;;;4.00;;
50128;SDS011;36026;45.478;9.224;2023-03-31T15:23:50;17.70;;;4.50;;
50128;SDS011;36026;45.478;9.224;2023-03-31T15:26:55;13.75;;;4.22;;
50128;SDS011;36026;45.478;9.224;2023-03-31T15:29:58;31.73;;;5.05;;
50128;SDS011;36026;45.478;9.224;2023-03-31T15:33:04;20.17;;;4.78;;
50128;SDS011;36026;45.478;9.224;2023-03-31T15:36:07;13.52;;;4.07;;
50128;SDS011;36026;45.478;9.224;2023-03-31T15:39:09;24.98;;;4.22;;
50128;SDS011;36026;45.478;9.224;2023-03-31T15:42:12;18.30;;;4.07;;
50128;SDS011;36026;45.478;9.224;2023-03-31T15:51:50;32.97;;;5.03;;
50128;SDS011;36026;45.478;9.224;2023-03-31T15:54:52;16.08;;;4.45;;
50128;SDS011;36026;45.478;9.224;2023-03-31T15:57:56;12.60;;;4.22;;
50128;SDS011;36026;45.478;9.224;2023-03-31T16:01:00;13.05;;;3.95;;
50128;SDS011;36026;45.478;9.224;2023-03-31T16:04:05;12.68;;;5.30;;
50128;SDS011;36026;45.478;9.224;2023-03-31T16:07:08;14.45;;;4.43;;
50128;SDS011;36026;45.478;9.224;2023-03-31T16:10:16;18.15;;;4.40;;
50128;SDS011;36026;45.478;9.224;2023-03-31T16:13:22;17.45;;;4.65;;
50128;SDS011;36026;45.478;9.224;2023-03-31T16:19:26;14.38;;;5.70;;
50128;SDS011;36026;45.478;9.224;2023-03-31T16:22:32;42.63;;;6.70;;
50128;SDS011;36026;45.478;9.224;2023-03-31T16:25:37;21.08;;;5.30;;
50128;SDS011;36026;45.478;9.224;2023-03-31T16:31:43;19.05;;;5.22;;
50128;SDS011;36026;45.478;9.224;2023-03-31T16:34:54;24.17;;;5.43;;
50128;SDS011;36026;45.478;9.224;2023-03-31T16:37:57;22.08;;;6.07;;
50128;SDS011;36026;45.478;9.224;2023-03-31T16:41:00;20.05;;;5.80;;
50128;SDS011;36026;45.478;9.224;2023-03-31T16:44:03;19.33;;;5.30;;
50128;SDS011;36026;45.478;9.224;2023-03-31T16:47:05;13.68;;;5.65;;
50128;SDS011;36026;45.478;9.224;2023-03-31T16:50:07;12.95;;;5.60;;
50128;SDS011;36026;45.478;9.224;2023-03-31T16:53:11;18.25;;;5.72;;
50128;SDS011;36026;45.478;9.224;2023-03-31T16:56:12;19.17;;;6.23;;
50128;SDS011;36026;45.478;9.224;2023-03-31T16:59:16;23.35;;;5.68;;
50128;SDS011;36026;45.478;9.224;2023-03-31T17:02:18;12.82;;;5.63;;
50128;SDS011;36026;45.478;9.224;2023-03-31T17:05:20;22.90;;;6.03;;
50128;SDS011;36026;45.478;9.224;2023-03-31T17:08:22;12.18;;;5.50;;
50128;SDS011;36026;45.478;9.224;2023-03-31T17:11:26;16.55;;;6.70;;
50128;SDS011;36026;45.478;9.224;2023-03-31T17:14:30;18.40;;;6.80;;
50128;SDS011;36026;45.478;9.224;2023-03-31T17:17:32;16.85;;;5.82;;
50128;SDS011;36026;45.478;9.224;2023-03-31T17:20:35;17.05;;;5.55;;
50128;SDS011;36026;45.478;9.224;2023-03-31T17:23:37;18.30;;;5.82;;
50128;SDS011;36026;45.478;9.224;2023-03-31T17:26:39;15.90;;;5.82;;
50128;SDS011;36026;45.478;9.224;2023-03-31T17:29:43;17.80;;;5.65;;
50128;SDS011;36026;45.478;9.224;2023-03-31T17:32:44;12.45;;;5.32;;
50128;SDS011;36026;45.478;9.224;2023-03-31T17:35:47;14.80;;;5.38;;
50128;SDS011;36026;45.478;9.224;2023-03-31T17:38:49;17.00;;;5.57;;
50128;SDS011;36026;45.478;9.224;2023-03-31T17:41:51;15.88;;;5.63;;
50128;SDS011;36026;45.478;9.224;2023-03-31T17:44:55;16.55;;;6.15;;
50128;SDS011;36026;45.478;9.224;2023-03-31T17:48:02;13.05;;;5.82;;
50128;SDS011;36026;45.478;9.224;2023-03-31T17:51:06;16.20;;;6.32;;
50128;SDS011;36026;45.478;9.224;2023-03-31T17:54:08;16.85;;;6.38;;
50128;SDS011;36026;45.478;9.224;2023-03-31T17:57:10;14.93;;;6.32;;
50128;SDS011;36026;45.478;9.224;2023-03-31T18:00:17;12.32;;;6.03;;
50128;SDS011;36026;45.478;9.224;2023-03-31T18:03:19;12.07;;;5.45;;
50128;SDS011;36026;45.478;9.224;2023-03-31T18:06:21;13.40;;;5.80;;
50128;SDS011;36026;45.478;9.224;2023-03-31T18:09:23;15.95;;;6.22;;
50128;SDS011;36026;45.478;9.224;2023-03-31T18:12:28;11.23;;;5.70;;
50128;SDS011;36026;45.478;9.224;2023-03-31T18:15:32;13.63;;;6.68;;
50128;SDS011;36026;45.478;9.224;2023-03-31T18:18:52;11.23;;;5.95;;
50128;SDS011;36026;45.478;9.224;2023-03-31T18:21:54;20.77;;;6.18;;
50128;SDS011;36026;45.478;9.224;2023-03-31T18:24:56;15.55;;;6.50;;
50128;SDS011;36026;45.478;9.224;2023-03-31T18:27:58;12.68;;;6.07;;
50128;SDS011;36026;45.478;9.224;2023-03-31T18:31:02;18.02;;;7.00;;
50128;SDS011;36026;45.478;9.224;2023-03-31T18:34:04;14.38;;;6.40;;
50128;SDS011;36026;45.478;9.224;2023-03-31T18:37:06;12.98;;;7.03;;
50128;SDS011;36026;45.478;9.224;2023-03-31T18:40:09;15.57;;;7.25;;
50128;SDS011;36026;45.478;9.224;2023-03-31T18:43:11;18.10;;;7.43;;
50128;SDS011;36026;45.478;9.224;2023-03-31T18:46:14;16.48;;;8.23;;
50128;SDS011;36026;45.478;9.224;2023-03-31T18:49:16;11.93;;;7.47;;
50128;SDS011;36026;45.478;9.224;2023-03-31T18:52:19;13.80;;;8.30;;
50128;SDS011;36026;45.478;9.224;2023-03-31T18:55:21;16.05;;;8.05;;
50128;SDS011;36026;45.478;9.224;2023-03-31T18:58:23;15.98;;;7.97;;
50128;SDS011;36026;45.478;9.224;2023-03-31T19:01:28;18.63;;;9.63;;
50128;SDS011;36026;45.478;9.224;2023-03-31T19:04:31;18.83;;;8.65;;
50128;SDS011;36026;45.478;9.224;2023-03-31T19:07:33;13.45;;;8.15;;
50128;SDS011;36026;45.478;9.224;2023-03-31T19:10:36;16.52;;;9.40;;
50128;SDS011;36026;45.478;9.224;2023-03-31T19:13:38;15.75;;;8.68;;
50128;SDS011;36026;45.478;9.224;2023-03-31T19:16:43;16.17;;;9.13;;
50128;SDS011;36026;45.478;9.224;2023-03-31T19:19:44;17.30;;;9.00;;
50128;SDS011;36026;45.478;9.224;2023-03-31T19:22:47;16.40;;;8.82;;
50128;SDS011;36026;45.478;9.224;2023-03-31T19:25:50;14.35;;;9.15;;
50128;SDS011;36026;45.478;9.224;2023-03-31T19:28:52;15.90;;;9.38;;
50128;SDS011;36026;45.478;9.224;2023-03-31T19:31:55;20.15;;;11.77;;
50128;SDS011;36026;45.478;9.224;2023-03-31T19:34:57;20.83;;;10.20;;
50128;SDS011;36026;45.478;9.224;2023-03-31T19:37:59;17.98;;;9.45;;
50128;SDS011;36026;45.478;9.224;2023-03-31T19:41:01;19.60;;;10.75;;
50128;SDS011;36026;45.478;9.224;2023-03-31T19:44:04;18.10;;;10.82;;